createdAt,value
2022-10-19T00:01:40.664Z,21.1
2022-10-19T00:03:24.342Z,21.1
2022-10-19T00:05:08.044Z,21.1
2022-10-19T00:06:51.758Z,21.1
2022-10-19T00:08:35.421Z,21.1
2022-10-19T00:10:19.185Z,21.1
2022-10-19T00:12:02.874Z,21.1
2022-10-19T00:13:46.554Z,21.1
2022-10-19T00:15:30.246Z,21.1
2022-10-19T00:17:13.955Z,21.1
2022-10-19T00:18:57.654Z,21.1
2022-10-19T00:20:41.323Z,21.1
2022-10-19T00:22:25.149Z,21.1
2022-10-19T00:24:08.764Z,21.1
2022-10-19T00:25:52.439Z,21.1
2022-10-19T00:27:36.128Z,21.1
2022-10-19T00:29:19.837Z,21.1
2022-10-19T00:31:03.596Z,21.1
2022-10-19T00:32:47.274Z,21.1
2022-10-19T00:34:30.958Z,21.1
2022-10-19T00:36:14.641Z,21.1
2022-10-19T00:37:58.349Z,21.1
2022-10-19T00:39:42.133Z,21.1
2022-10-19T00:41:25.801Z,21.1
2022-10-19T00:43:09.482Z,21.1
2022-10-19T00:44:53.165Z,21.1
2022-10-19T00:46:36.843Z,21.1
2022-10-19T00:48:20.541Z,21.1
2022-10-19T00:50:04.259Z,21.1
2022-10-19T00:51:48.031Z,21.1
2022-10-19T00:53:31.731Z,21.1
2022-10-19T00:55:15.381Z,21.1
2022-10-19T00:56:59.064Z,21.1
2022-10-19T00:58:42.796Z,21.1
2022-10-19T01:00:26.532Z,21.1
2022-10-19T01:02:10.210Z,21.1
2022-10-19T01:03:53.943Z,21.1
2022-10-19T01:05:37.574Z,21.1
2022-10-19T01:07:21.277Z,21.1
2022-10-19T01:09:05.029Z,21.1
2022-10-19T01:10:48.734Z,21.1
2022-10-19T01:12:32.413Z,21.1
2022-10-19T01:14:16.098Z,21.1
2022-10-19T01:15:59.776Z,21.1
2022-10-19T01:17:43.495Z,21.1
2022-10-19T01:19:27.186Z,21.1
2022-10-19T01:21:10.937Z,21.1
2022-10-19T01:22:54.618Z,21
2022-10-19T01:24:38.316Z,21
2022-10-19T01:26:21.991Z,21
2022-10-19T01:28:05.737Z,21
2022-10-19T01:29:49.373Z,21
2022-10-19T01:31:33.140Z,21
2022-10-19T01:33:16.831Z,21
2022-10-19T01:35:00.567Z,21
2022-10-19T01:36:44.185Z,21
2022-10-19T01:38:27.909Z,21
2022-10-19T01:40:11.624Z,21
2022-10-19T01:41:55.356Z,21
2022-10-19T01:43:39.031Z,21
2022-10-19T01:45:22.726Z,21
2022-10-19T01:47:06.400Z,21
2022-10-19T01:48:50.109Z,21
2022-10-19T01:50:33.794Z,21
2022-10-19T01:52:17.497Z,21
2022-10-19T01:54:01.236Z,21
2022-10-19T01:55:44.926Z,21
2022-10-19T01:57:28.598Z,21
2022-10-19T01:59:12.284Z,21
2022-10-19T02:00:56.089Z,21
2022-10-19T02:02:39.755Z,21
2022-10-19T02:04:23.453Z,21
2022-10-19T02:06:07.119Z,21
2022-10-19T02:07:50.802Z,21
2022-10-19T02:09:34.510Z,21
2022-10-19T02:11:18.214Z,21
2022-10-19T02:13:01.960Z,21
2022-10-19T02:14:45.649Z,21
2022-10-19T02:16:29.329Z,21
2022-10-19T02:18:13.047Z,21
2022-10-19T02:19:56.747Z,21
2022-10-19T02:21:40.491Z,21
2022-10-19T02:23:24.169Z,21
2022-10-19T02:25:07.846Z,21
2022-10-19T02:26:51.549Z,21
2022-10-19T02:28:35.241Z,21
2022-10-19T02:30:19.013Z,21
2022-10-19T02:32:02.695Z,21
2022-10-19T02:33:46.444Z,21
2022-10-19T02:35:30.066Z,21
2022-10-19T02:37:13.906Z,21
2022-10-19T02:38:57.469Z,21
2022-10-19T02:40:41.220Z,21
2022-10-19T02:42:24.900Z,21
2022-10-19T02:44:08.577Z,21
2022-10-19T02:45:52.267Z,21
2022-10-19T02:47:35.987Z,21
2022-10-19T02:49:19.738Z,21
2022-10-19T02:51:03.425Z,21
2022-10-19T02:52:47.100Z,21
2022-10-19T02:54:30.784Z,21
2022-10-19T02:56:14.493Z,21
2022-10-19T02:57:58.188Z,21
2022-10-19T02:59:42.012Z,21
2022-10-19T03:01:25.627Z,21
2022-10-19T03:03:09.309Z,21
2022-10-19T03:04:52.999Z,21
2022-10-19T03:06:36.704Z,21
2022-10-19T03:08:20.416Z,21
2022-10-19T03:10:04.243Z,21
2022-10-19T03:11:47.879Z,21
2022-10-19T03:13:31.540Z,21
2022-10-19T03:15:15.206Z,21
2022-10-19T03:16:58.925Z,21
2022-10-19T03:18:42.672Z,21
2022-10-19T03:20:26.354Z,21
2022-10-19T03:22:10.048Z,21
2022-10-19T03:23:53.738Z,21
2022-10-19T03:25:37.450Z,21
2022-10-19T03:27:21.157Z,21
2022-10-19T03:29:04.877Z,21
2022-10-19T03:30:48.557Z,20.9
2022-10-19T03:32:32.254Z,20.9
2022-10-19T03:34:15.973Z,20.9
2022-10-19T03:35:59.658Z,20.9
2022-10-19T03:37:43.400Z,20.9
2022-10-19T03:39:27.120Z,20.9
2022-10-19T03:41:10.765Z,20.9
2022-10-19T03:42:54.451Z,20.9
2022-10-19T03:44:38.160Z,20.9
2022-10-19T03:46:21.875Z,20.9
2022-10-19T03:48:05.607Z,20.9
2022-10-19T03:49:49.292Z,20.9
2022-10-19T03:51:32.966Z,20.9
2022-10-19T03:53:16.678Z,20.9
2022-10-19T03:55:00.362Z,20.9
2022-10-19T03:56:44.137Z,20.9
2022-10-19T03:58:27.810Z,20.9
2022-10-19T04:00:11.883Z,20.9
2022-10-19T04:01:55.181Z,20.9
2022-10-19T04:03:38.936Z,20.9
2022-10-19T04:05:22.606Z,20.9
2022-10-19T04:07:06.345Z,20.9
2022-10-19T04:08:50.021Z,20.9
2022-10-19T04:10:33.703Z,20.9
2022-10-19T04:12:17.423Z,20.9
2022-10-19T04:14:01.111Z,20.9
2022-10-19T04:15:44.785Z,20.9
2022-10-19T04:17:28.619Z,20.9
2022-10-19T04:19:12.221Z,20.9
2022-10-19T04:20:55.908Z,20.8
2022-10-19T04:22:39.588Z,20.8
2022-10-19T04:24:23.282Z,20.8
2022-10-19T04:26:07.000Z,20.8
2022-10-19T04:27:50.685Z,20.8
2022-10-19T04:29:34.432Z,20.8
2022-10-19T04:31:18.108Z,20.8
2022-10-19T04:33:01.805Z,20.8
2022-10-19T04:34:45.499Z,20.8
2022-10-19T04:36:29.211Z,20.8
2022-10-19T04:38:12.967Z,20.8
2022-10-19T04:39:56.638Z,20.8
2022-10-19T04:41:40.838Z,20.8
2022-10-19T04:43:24.012Z,20.8
2022-10-19T04:45:07.725Z,20.8
2022-10-19T04:46:51.486Z,20.8
2022-10-19T04:48:35.154Z,20.8
2022-10-19T04:50:18.961Z,20.8
2022-10-19T04:52:02.519Z,20.8
2022-10-19T04:53:46.282Z,20.8
2022-10-19T04:55:29.918Z,20.8
2022-10-19T04:57:13.708Z,20.8
2022-10-19T04:58:57.362Z,20.8
2022-10-19T05:00:41.046Z,20.8
2022-10-19T05:02:24.734Z,20.8
2022-10-19T05:04:08.437Z,20.7
2022-10-19T05:05:52.123Z,20.7
2022-10-19T05:07:35.825Z,20.7
2022-10-19T05:09:19.564Z,20.7
2022-10-19T05:11:03.246Z,20.7
2022-10-19T05:12:46.927Z,20.7
2022-10-19T05:14:30.619Z,20.7
2022-10-19T05:16:14.336Z,20.7
2022-10-19T05:17:58.031Z,20.7
2022-10-19T05:19:41.771Z,20.7
2022-10-19T05:21:25.447Z,20.7
2022-10-19T05:23:09.176Z,20.7
2022-10-19T05:24:52.865Z,20.7
2022-10-19T05:26:36.538Z,20.7
2022-10-19T05:28:20.297Z,20.7
2022-10-19T05:30:03.981Z,20.7
2022-10-19T05:31:47.661Z,20.7
2022-10-19T05:33:31.346Z,20.7
2022-10-19T05:35:15.086Z,20.7
2022-10-19T05:36:58.821Z,20.7
2022-10-19T05:38:42.495Z,20.7
2022-10-19T05:40:26.194Z,20.7
2022-10-19T05:42:09.863Z,20.7
2022-10-19T05:43:53.608Z,20.7
2022-10-19T05:45:37.289Z,20.7
2022-10-19T05:47:20.944Z,20.7
2022-10-19T05:49:04.705Z,20.7
2022-10-19T05:50:48.383Z,20.7
2022-10-19T05:52:32.115Z,20.7
2022-10-19T05:54:15.797Z,20.7
2022-10-19T05:55:59.470Z,20.7
2022-10-19T05:57:43.167Z,20.7
2022-10-19T05:59:26.924Z,20.7
2022-10-19T06:01:10.595Z,20.7
2022-10-19T06:02:54.282Z,20.7
2022-10-19T06:04:37.965Z,20.7
2022-10-19T06:06:21.677Z,20.7
2022-10-19T06:08:05.365Z,20.7
2022-10-19T06:09:49.125Z,20.8
2022-10-19T06:11:32.823Z,20.8
2022-10-19T06:13:16.491Z,20.8
2022-10-19T06:15:00.239Z,20.8
2022-10-19T06:16:43.957Z,20.8
2022-10-19T06:18:27.571Z,20.8
2022-10-19T06:20:11.326Z,20.8
2022-10-19T06:21:55.001Z,20.8
2022-10-19T06:23:38.682Z,20.8
2022-10-19T06:25:22.391Z,20.8
2022-10-19T06:27:06.079Z,20.8
2022-10-19T06:28:49.843Z,20.8
2022-10-19T06:30:33.528Z,20.8
2022-10-19T06:32:17.209Z,20.8
2022-10-19T06:34:00.893Z,20.8
2022-10-19T06:35:44.572Z,20.8
2022-10-19T06:37:28.295Z,20.8
2022-10-19T06:39:12.009Z,20.8
2022-10-19T06:40:55.733Z,20.8
2022-10-19T06:42:39.658Z,20.8
2022-10-19T06:44:23.104Z,20.8
2022-10-19T06:46:06.807Z,20.8
2022-10-19T06:47:50.498Z,20.8
2022-10-19T06:49:34.202Z,20.8
2022-10-19T06:51:17.940Z,20.8
2022-10-19T06:53:01.635Z,20.8
2022-10-19T06:54:45.310Z,20.8
2022-10-19T06:56:29.020Z,20.8
2022-10-19T06:58:12.865Z,20.8
2022-10-19T06:59:56.420Z,20.9
2022-10-19T07:01:40.281Z,20.9
2022-10-19T07:03:23.923Z,20.9
2022-10-19T07:05:07.630Z,20.9
2022-10-19T07:06:51.210Z,20.9
2022-10-19T07:08:34.954Z,21
2022-10-19T07:10:18.623Z,21
2022-10-19T07:12:02.290Z,21
2022-10-19T07:13:46.026Z,21
2022-10-19T07:15:29.711Z,21.1
2022-10-19T07:17:13.386Z,21.1
2022-10-19T07:18:57.093Z,21.1
2022-10-19T07:20:40.792Z,21.1
2022-10-19T07:22:24.554Z,21.1
2022-10-19T07:24:08.233Z,21.1
2022-10-19T07:25:51.918Z,21.1
2022-10-19T07:27:35.600Z,21.1
2022-10-19T07:29:19.307Z,21.1
2022-10-19T07:31:02.986Z,21.2
2022-10-19T07:32:46.760Z,21.2
2022-10-19T07:34:30.438Z,21.2
2022-10-19T07:36:14.116Z,21.2
2022-10-19T07:37:57.798Z,21.3
2022-10-19T07:39:41.504Z,21.3
2022-10-19T07:41:25.244Z,21.3
2022-10-19T07:43:08.964Z,21.3
2022-10-19T07:44:52.662Z,21.3
2022-10-19T07:46:36.323Z,21.3
2022-10-19T07:48:20.010Z,21.3
2022-10-19T07:50:03.712Z,21.3
2022-10-19T07:51:47.400Z,21.3
2022-10-19T07:53:31.096Z,21.3
2022-10-19T07:55:14.847Z,21.4
2022-10-19T07:56:58.567Z,21.4
2022-10-19T07:58:42.312Z,21.3
2022-10-19T08:00:25.894Z,21.4
2022-10-19T08:02:09.608Z,21.4
2022-10-19T08:03:53.376Z,21.4
2022-10-19T08:05:37.053Z,21.4
2022-10-19T08:07:20.738Z,21.3
2022-10-19T08:09:04.427Z,21.4
2022-10-19T08:10:48.110Z,21.4
2022-10-19T08:12:31.812Z,21.5
2022-10-19T08:14:15.572Z,21.5
2022-10-19T08:15:59.356Z,21.5
2022-10-19T08:17:42.996Z,21.6
2022-10-19T08:19:26.624Z,21.6
2022-10-19T08:21:10.326Z,21.6
2022-10-19T08:22:54.133Z,21.6
2022-10-19T08:24:37.812Z,21.6
2022-10-19T08:26:21.465Z,21.6
2022-10-19T08:28:05.157Z,21.7
2022-10-19T08:29:48.875Z,21.7
2022-10-19T08:31:32.598Z,21.7
2022-10-19T08:33:16.307Z,21.6
2022-10-19T08:35:00.002Z,21.6
2022-10-19T08:36:43.674Z,21.6
2022-10-19T08:38:27.380Z,21.6
2022-10-19T08:40:11.065Z,21.6
2022-10-19T08:41:54.759Z,21.6
2022-10-19T08:43:38.530Z,21.6
2022-10-19T08:45:22.203Z,21.6
2022-10-19T08:47:05.877Z,21.6
2022-10-19T08:48:49.637Z,21.7
2022-10-19T08:50:33.329Z,21.7
2022-10-19T08:52:17.040Z,21.7
2022-10-19T08:54:00.714Z,21.7
2022-10-19T08:55:44.397Z,21.7
2022-10-19T08:57:28.090Z,21.7
2022-10-19T08:59:11.871Z,21.8
2022-10-19T09:00:55.509Z,21.8
2022-10-19T09:02:39.249Z,21.8
2022-10-19T09:04:22.958Z,21.8
2022-10-19T09:06:06.608Z,21.9
2022-10-19T09:07:50.297Z,21.9
2022-10-19T09:09:33.992Z,21.9
2022-10-19T09:11:17.758Z,21.9
2022-10-19T09:13:01.447Z,21.9
2022-10-19T09:14:45.130Z,21.9
2022-10-19T09:16:28.814Z,21.8
2022-10-19T09:18:12.507Z,21.8
2022-10-19T09:19:56.223Z,21.8
2022-10-19T09:21:39.902Z,21.8
2022-10-19T09:23:23.652Z,21.8
2022-10-19T09:26:51.154Z,21.9
2022-10-19T09:28:34.714Z,22
2022-10-19T09:30:18.416Z,22
2022-10-19T09:32:02.107Z,22
2022-10-19T09:33:45.873Z,22
2022-10-19T09:35:29.542Z,22.1
2022-10-19T09:37:13.220Z,22.1
2022-10-19T09:38:56.917Z,22.1
2022-10-19T09:40:40.629Z,22.1
2022-10-19T09:42:24.312Z,22.1
2022-10-19T09:44:08.065Z,22.2
2022-10-19T09:45:51.743Z,22.2
2022-10-19T09:47:35.445Z,22.2
2022-10-19T09:49:19.143Z,22.2
2022-10-19T09:51:02.901Z,22.2
2022-10-19T09:52:46.583Z,22.2
2022-10-19T09:54:30.266Z,22.2
2022-10-19T09:56:14.028Z,22.2
2022-10-19T09:57:57.649Z,22.3
2022-10-19T09:59:41.424Z,22.3
2022-10-19T10:01:25.103Z,22.3
2022-10-19T10:03:08.809Z,22.3
2022-10-19T10:04:52.472Z,22.3
2022-10-19T10:06:36.173Z,22.3
2022-10-19T10:08:19.878Z,22.3
2022-10-19T10:10:03.627Z,22.4
2022-10-19T10:11:47.313Z,22.4
2022-10-19T10:13:31.003Z,22.4
2022-10-19T10:15:14.689Z,22.4
2022-10-19T10:16:58.404Z,22.3
2022-10-19T10:18:42.190Z,22.3
2022-10-19T10:20:25.837Z,22.4
2022-10-19T10:22:09.519Z,22.5
2022-10-19T10:23:53.205Z,22.5
2022-10-19T10:25:36.923Z,22.5
2022-10-19T10:27:20.682Z,22.5
2022-10-19T10:29:04.360Z,22.6
2022-10-19T10:30:48.036Z,22.6
2022-10-19T10:32:31.745Z,22.6
2022-10-19T10:34:15.445Z,22.7
2022-10-19T10:35:59.144Z,22.7
2022-10-19T10:37:42.882Z,22.7
2022-10-19T10:39:26.564Z,22.7
2022-10-19T10:41:10.258Z,22.7
2022-10-19T10:42:53.979Z,22.8
2022-10-19T10:44:37.657Z,22.8
2022-10-19T10:46:21.409Z,22.8
2022-10-19T10:48:05.187Z,22.7
2022-10-19T10:49:48.886Z,22.7
2022-10-19T10:51:32.451Z,22.7
2022-10-19T10:53:16.169Z,22.7
2022-10-19T10:54:59.859Z,22.7
2022-10-19T10:56:43.543Z,22.6
2022-10-19T10:58:27.297Z,22.6
2022-10-19T11:00:10.973Z,22.5
2022-10-19T11:01:54.750Z,22.5
2022-10-19T11:03:38.435Z,22.5
2022-10-19T11:05:22.068Z,22.4
2022-10-19T11:07:05.846Z,22.4
2022-10-19T11:08:49.500Z,22.4
2022-10-19T11:10:33.242Z,22.4
2022-10-19T11:12:16.924Z,22.4
2022-10-19T11:14:00.582Z,22.4
2022-10-19T11:15:44.279Z,22.4
2022-10-19T11:17:28.040Z,22.4
2022-10-19T11:19:11.732Z,22.4
2022-10-19T11:20:55.397Z,22.4
2022-10-19T11:22:39.100Z,22.4
2022-10-19T11:24:22.799Z,22.4
2022-10-19T11:26:06.547Z,22.3
2022-10-19T11:27:50.316Z,22.3
2022-10-19T11:29:33.964Z,22.3
2022-10-19T11:31:17.607Z,22.2
2022-10-19T11:33:01.331Z,22.2
2022-10-19T11:34:45.068Z,22.3
2022-10-19T11:36:28.756Z,22.3
2022-10-19T11:38:12.436Z,22.3
2022-10-19T11:39:56.116Z,22.3
2022-10-19T11:41:39.815Z,22.3
2022-10-19T11:43:23.592Z,22.3
2022-10-19T11:45:07.279Z,22.3
2022-10-19T11:46:50.959Z,22.3
2022-10-19T11:48:34.641Z,22.3
2022-10-19T11:50:18.340Z,22.3
2022-10-19T11:52:02.027Z,22.3
2022-10-19T11:53:45.722Z,22.3
2022-10-19T11:55:29.485Z,22.4
2022-10-19T11:57:13.170Z,22.5
2022-10-19T11:58:56.846Z,22.5
2022-10-19T12:00:40.542Z,22.5
2022-10-19T12:02:24.251Z,22.5
2022-10-19T12:04:08.007Z,22.5
2022-10-19T12:05:51.690Z,22.5
2022-10-19T12:07:35.366Z,22.5
2022-10-19T12:09:19.056Z,22.5
2022-10-19T12:11:02.847Z,22.5
2022-10-19T12:12:46.456Z,22.5
2022-10-19T12:14:30.149Z,22.5
2022-10-19T12:16:13.893Z,22.5
2022-10-19T12:17:57.571Z,22.5
2022-10-19T12:19:41.258Z,22.5
2022-10-19T12:21:24.963Z,22.5
2022-10-19T12:23:08.666Z,22.5
2022-10-19T12:24:52.418Z,22.5
2022-10-19T12:26:36.100Z,22.5
2022-10-19T12:28:19.774Z,22.5
2022-10-19T12:30:03.490Z,22.5
2022-10-19T12:31:47.189Z,22.5
2022-10-19T12:33:30.875Z,22.5
2022-10-19T12:35:14.614Z,22.4
2022-10-19T12:36:58.299Z,22.4
2022-10-19T12:38:42.005Z,22.4
2022-10-19T12:40:25.693Z,22.4
2022-10-19T12:42:09.403Z,22.4
2022-10-19T12:43:53.156Z,22.4
2022-10-19T12:45:36.825Z,22.4
2022-10-19T12:47:20.526Z,22.4
2022-10-19T12:49:04.212Z,22.4
2022-10-19T12:50:47.992Z,22.4
2022-10-19T12:52:31.669Z,22.4
2022-10-19T12:54:15.349Z,22.4
2022-10-19T12:55:59.040Z,22.4
2022-10-19T12:57:42.822Z,22.5
2022-10-19T12:59:26.539Z,22.5
2022-10-19T13:01:10.191Z,22.5
2022-10-19T13:02:54.026Z,22.5
2022-10-19T13:04:37.625Z,22.5
2022-10-19T13:06:21.306Z,22.5
2022-10-19T13:08:05.027Z,22.5
2022-10-19T13:09:48.872Z,22.6
2022-10-19T13:11:32.513Z,22.6
2022-10-19T13:13:16.225Z,22.7
2022-10-19T13:14:59.859Z,22.7
2022-10-19T13:16:43.592Z,22.8
2022-10-19T13:18:27.172Z,22.8
2022-10-19T13:20:11.018Z,22.9
2022-10-19T13:21:54.645Z,22.9
2022-10-19T13:23:38.332Z,23
2022-10-19T13:25:21.969Z,23
2022-10-19T13:27:05.686Z,23
2022-10-19T13:28:49.449Z,23
2022-10-19T13:30:33.139Z,23
2022-10-19T13:32:16.815Z,23.1
2022-10-19T13:34:00.481Z,23.1
2022-10-19T13:35:44.201Z,23.1
2022-10-19T13:37:27.899Z,23.1
2022-10-19T13:39:11.652Z,23.1
2022-10-19T13:40:55.328Z,23.1
2022-10-19T13:42:39.023Z,23.2
2022-10-19T13:44:22.706Z,23.2
2022-10-19T13:46:06.385Z,23.2
2022-10-19T13:47:50.100Z,23.2
2022-10-19T13:49:33.851Z,23.2
2022-10-19T13:51:17.536Z,23.2
2022-10-19T13:53:01.226Z,23.2
2022-10-19T13:54:44.912Z,23.2
2022-10-19T13:56:28.608Z,23.2
2022-10-19T13:58:12.300Z,23.2
2022-10-19T13:59:55.995Z,23.2
2022-10-19T14:01:39.736Z,23.2
2022-10-19T14:03:23.425Z,23.2
2022-10-19T14:05:07.133Z,23.2
2022-10-19T14:06:50.834Z,23.2
2022-10-19T14:08:34.583Z,23.2
2022-10-19T14:10:18.274Z,23.2
2022-10-19T14:12:01.951Z,23.2
2022-10-19T14:13:45.654Z,23.2
2022-10-19T14:15:29.336Z,23.2
2022-10-19T14:17:13.115Z,23.2
2022-10-19T14:18:56.812Z,23.1
2022-10-19T14:20:40.475Z,23.1
2022-10-19T14:22:24.157Z,23.1
2022-10-19T14:24:07.876Z,23.1
2022-10-19T14:25:51.574Z,23.1
2022-10-19T14:27:35.343Z,23.1
2022-10-19T14:29:19.000Z,23.1
2022-10-19T14:31:02.688Z,23.1
2022-10-19T14:32:46.383Z,23.1
2022-10-19T14:34:30.095Z,23.1
2022-10-19T14:36:13.842Z,23.1
2022-10-19T14:37:57.527Z,23.1
2022-10-19T14:39:41.209Z,23.1
2022-10-19T14:41:24.910Z,23.1
2022-10-19T14:43:08.608Z,23.1
2022-10-19T14:44:52.358Z,23
2022-10-19T14:46:36.042Z,23
2022-10-19T14:48:19.753Z,23
2022-10-19T14:50:03.407Z,23
2022-10-19T14:51:47.113Z,23
2022-10-19T14:53:30.814Z,22.9
2022-10-19T14:55:14.566Z,22.9
2022-10-19T14:56:58.249Z,22.9
2022-10-19T14:58:41.932Z,22.9
2022-10-19T15:00:25.609Z,22.9
2022-10-19T15:02:09.310Z,22.9
2022-10-19T15:03:53.026Z,22.9
2022-10-19T15:05:36.768Z,22.9
2022-10-19T15:07:20.461Z,22.8
2022-10-19T15:09:04.131Z,22.8
2022-10-19T15:10:47.855Z,22.8
2022-10-19T15:12:31.589Z,22.8
2022-10-19T15:14:15.249Z,22.8
2022-10-19T15:15:58.983Z,22.8
2022-10-19T15:17:42.659Z,22.8
2022-10-19T15:19:26.334Z,22.8
2022-10-19T15:21:10.026Z,22.7
2022-10-19T15:22:53.733Z,22.7
2022-10-19T15:24:37.431Z,22.7
2022-10-19T15:26:21.183Z,22.7
2022-10-19T15:28:04.863Z,22.6
2022-10-19T15:29:48.553Z,22.6
2022-10-19T15:31:32.243Z,22.5
2022-10-19T15:33:15.967Z,22.5
2022-10-19T15:34:59.671Z,22.5
2022-10-19T15:36:43.381Z,22.4
2022-10-19T15:38:27.074Z,22.4
2022-10-19T15:40:10.808Z,22.4
2022-10-19T15:41:54.449Z,22.3
2022-10-19T15:43:38.169Z,22.3
2022-10-19T15:45:21.906Z,22.3
2022-10-19T15:47:05.601Z,22.2
2022-10-19T15:48:49.274Z,22.2
2022-10-19T15:50:32.965Z,22.2
2022-10-19T15:52:16.734Z,22.2
2022-10-19T15:54:00.438Z,22.1
2022-10-19T15:55:44.122Z,22.1
2022-10-19T15:57:27.797Z,22.1
2022-10-19T15:59:11.477Z,22.1
2022-10-19T16:00:55.186Z,22.1
2022-10-19T16:02:38.884Z,22
2022-10-19T16:04:22.645Z,22
2022-10-19T16:06:06.319Z,22
2022-10-19T16:07:50.012Z,22
2022-10-19T16:09:33.732Z,21.9
2022-10-19T16:11:17.408Z,21.9
2022-10-19T16:13:01.166Z,21.9
2022-10-19T16:14:44.844Z,21.9
2022-10-19T16:16:28.549Z,21.9
2022-10-19T16:18:12.227Z,21.8
2022-10-19T16:19:55.943Z,21.8
2022-10-19T16:21:39.623Z,21.8
2022-10-19T16:23:23.364Z,21.8
2022-10-19T16:25:07.060Z,21.8
2022-10-19T16:26:50.737Z,21.8
2022-10-19T16:28:34.444Z,21.8
2022-10-19T16:30:18.138Z,21.9
2022-10-19T16:32:01.886Z,21.9
2022-10-19T16:33:45.575Z,21.9
2022-10-19T16:35:29.251Z,21.9
2022-10-19T16:37:12.951Z,21.9
2022-10-19T16:38:56.664Z,21.9
2022-10-19T16:40:40.426Z,21.9
2022-10-19T16:42:24.136Z,21.9
2022-10-19T16:44:07.778Z,21.9
2022-10-19T16:45:51.472Z,21.9
2022-10-19T16:47:35.170Z,21.9
2022-10-19T16:49:18.869Z,21.9
2022-10-19T16:51:02.624Z,21.9
2022-10-19T16:52:46.299Z,21.9
2022-10-19T16:54:29.994Z,21.9
2022-10-19T16:56:13.678Z,21.9
2022-10-19T16:57:57.390Z,21.9
2022-10-19T16:59:41.154Z,21.9
2022-10-19T17:01:24.833Z,21.9
2022-10-19T17:04:52.184Z,21.9
2022-10-19T17:06:35.905Z,21.9
2022-10-19T17:08:19.602Z,21.9
2022-10-19T17:10:03.356Z,21.9
2022-10-19T17:11:47.031Z,21.9
2022-10-19T17:13:30.724Z,21.9
2022-10-19T17:15:14.443Z,21.9
2022-10-19T17:16:58.119Z,21.9
2022-10-19T17:18:41.904Z,21.9
2022-10-19T17:20:25.552Z,21.9
2022-10-19T17:22:09.240Z,21.9
2022-10-19T17:23:52.928Z,21.9
2022-10-19T17:25:36.675Z,21.9
2022-10-19T17:27:20.397Z,21.9
2022-10-19T17:29:04.081Z,21.9
2022-10-19T17:30:47.761Z,21.9
2022-10-19T17:32:31.446Z,21.9
2022-10-19T17:35:58.841Z,21.8
2022-10-19T17:37:42.539Z,21.8
2022-10-19T17:39:26.289Z,21.8
2022-10-19T17:41:09.973Z,21.8
2022-10-19T17:42:53.659Z,21.8
2022-10-19T17:44:37.396Z,21.8
2022-10-19T17:46:21.062Z,21.8
2022-10-19T17:48:04.825Z,21.8
2022-10-19T17:49:48.489Z,21.8
2022-10-19T17:51:32.167Z,21.8
2022-10-19T17:53:15.864Z,21.8
2022-10-19T17:54:59.562Z,21.8
2022-10-19T17:56:43.271Z,21.8
2022-10-19T17:58:27.014Z,21.8
2022-10-19T18:00:10.692Z,21.7
2022-10-19T18:01:54.417Z,21.7
2022-10-19T18:03:38.079Z,21.8
2022-10-19T18:05:21.784Z,21.7
2022-10-19T18:07:05.541Z,21.7
2022-10-19T18:08:49.214Z,21.7
2022-10-19T18:10:32.897Z,21.7
2022-10-19T18:12:16.605Z,21.7
2022-10-19T18:14:00.330Z,21.7
2022-10-19T18:15:44.007Z,21.7
2022-10-19T18:17:27.740Z,21.7
2022-10-19T18:19:11.422Z,21.7
2022-10-19T18:20:55.109Z,21.7
2022-10-19T18:22:38.816Z,21.7
2022-10-19T18:24:22.524Z,21.7
2022-10-19T18:26:06.271Z,21.7
2022-10-19T18:27:49.966Z,21.7
2022-10-19T18:29:33.634Z,21.7
2022-10-19T18:31:17.363Z,21.7
2022-10-19T18:33:01.026Z,21.7
2022-10-19T18:34:44.796Z,21.7
2022-10-19T18:36:28.474Z,21.7
2022-10-19T18:38:12.149Z,21.7
2022-10-19T18:39:55.850Z,21.7
2022-10-19T18:41:39.556Z,21.6
2022-10-19T18:43:23.328Z,21.6
2022-10-19T18:45:06.998Z,21.6
2022-10-19T18:46:50.677Z,21.6
2022-10-19T18:48:34.366Z,21.6
2022-10-19T18:50:18.066Z,21.6
2022-10-19T18:52:01.824Z,21.6
2022-10-19T18:53:45.525Z,21.6
2022-10-19T18:55:29.215Z,21.6
2022-10-19T18:57:12.945Z,21.6
2022-10-19T18:58:56.605Z,21.6
2022-10-19T19:00:40.284Z,21.6
2022-10-19T19:02:23.990Z,21.6
2022-10-19T19:04:07.732Z,21.6
2022-10-19T19:05:51.411Z,21.6
2022-10-19T19:07:35.098Z,21.6
2022-10-19T19:09:18.800Z,21.6
2022-10-19T19:11:02.503Z,21.6
2022-10-19T19:12:46.252Z,21.6
2022-10-19T19:14:29.936Z,21.5
2022-10-19T19:16:13.651Z,21.5
2022-10-19T19:17:57.324Z,21.5
2022-10-19T19:19:41.023Z,21.5
2022-10-19T19:21:24.786Z,21.5
2022-10-19T19:23:08.477Z,21.5
2022-10-19T19:24:52.139Z,21.5
2022-10-19T19:26:35.835Z,21.5
2022-10-19T19:28:19.563Z,21.4
2022-10-19T19:30:03.282Z,21.4
2022-10-19T19:31:46.978Z,21.4
2022-10-19T19:33:30.675Z,21.4
2022-10-19T19:35:14.360Z,21.4
2022-10-19T19:36:58.057Z,21.4
2022-10-19T19:38:41.749Z,21.4
2022-10-19T19:40:25.516Z,21.4
2022-10-19T19:42:09.184Z,21.4
2022-10-19T19:43:52.869Z,21.4
2022-10-19T19:45:36.570Z,21.3
2022-10-19T19:47:20.287Z,21.3
2022-10-19T19:49:04.034Z,21.3
2022-10-19T19:50:47.702Z,21.3
2022-10-19T19:52:31.407Z,21.3
2022-10-19T19:54:15.109Z,21.3
2022-10-19T19:55:58.792Z,21.3
2022-10-19T19:57:42.576Z,21.3
2022-10-19T19:59:26.231Z,21.3
2022-10-19T20:01:09.920Z,21.2
2022-10-19T20:02:53.598Z,21.2
2022-10-19T20:04:37.313Z,21.2
2022-10-19T20:06:21.001Z,21.2
2022-10-19T20:08:04.752Z,21.2
2022-10-19T20:09:48.438Z,21.2
2022-10-19T20:11:32.115Z,21.2
2022-10-19T20:13:15.813Z,21.2
2022-10-19T20:14:59.524Z,21.2
2022-10-19T20:16:43.302Z,21.2
2022-10-19T20:18:26.968Z,21.2
2022-10-19T20:20:10.654Z,21.1
2022-10-19T20:21:54.320Z,21.1
2022-10-19T20:23:38.022Z,21.1
2022-10-19T20:25:21.716Z,21.1
2022-10-19T20:27:05.398Z,21.1
2022-10-19T20:28:49.168Z,21.1
2022-10-19T20:30:32.846Z,21.1
2022-10-19T20:32:16.536Z,21.1
2022-10-19T20:34:00.206Z,21.1
2022-10-19T20:35:43.918Z,21.1
2022-10-19T20:37:27.627Z,21.1
2022-10-19T20:39:11.395Z,21.1
2022-10-19T20:40:55.067Z,21.1
2022-10-19T20:42:38.742Z,21.1
2022-10-19T20:44:22.456Z,21.1
2022-10-19T20:46:06.142Z,21.1
2022-10-19T20:47:49.831Z,21
2022-10-19T20:49:33.577Z,21
2022-10-19T20:51:17.253Z,21
2022-10-19T20:53:00.934Z,21
2022-10-19T20:54:44.636Z,21
2022-10-19T20:56:28.380Z,21
2022-10-19T20:58:12.103Z,21
2022-10-19T20:59:55.782Z,21
2022-10-19T21:01:39.457Z,21
2022-10-19T21:03:23.144Z,21
2022-10-19T21:05:06.855Z,21
2022-10-19T21:06:50.546Z,21
2022-10-19T21:08:34.245Z,21
2022-10-19T21:10:17.986Z,21
2022-10-19T21:12:01.666Z,20.9
2022-10-19T21:13:45.382Z,21
2022-10-19T21:15:29.065Z,21
2022-10-19T21:17:12.766Z,21
2022-10-19T21:18:56.510Z,20.9
2022-10-19T21:20:40.187Z,21
2022-10-19T21:22:23.885Z,20.9
2022-10-19T21:24:07.582Z,20.9
2022-10-19T21:25:51.289Z,20.9
2022-10-19T21:27:35.037Z,20.9
2022-10-19T21:29:18.741Z,20.9
2022-10-19T21:31:02.393Z,20.9
2022-10-19T21:32:46.097Z,20.9
2022-10-19T21:34:29.813Z,20.9
2022-10-19T21:36:13.505Z,20.9
2022-10-19T21:37:57.246Z,20.9
2022-10-19T21:39:40.915Z,20.9
2022-10-19T21:41:24.606Z,20.9
2022-10-19T21:43:08.301Z,20.9
2022-10-19T21:44:52.082Z,20.9
2022-10-19T21:46:35.803Z,20.9
2022-10-19T21:48:19.444Z,20.9
2022-10-19T21:50:03.132Z,20.9
2022-10-19T21:51:46.819Z,20.9
2022-10-19T21:53:30.517Z,20.9
2022-10-19T21:55:14.206Z,20.9
2022-10-19T21:56:57.974Z,20.9
2022-10-19T21:58:41.648Z,20.9
2022-10-19T22:00:25.348Z,20.9
2022-10-19T22:02:09.008Z,20.9
2022-10-19T22:03:52.713Z,20.9
2022-10-19T22:05:36.412Z,20.8
2022-10-19T22:07:20.169Z,20.8
2022-10-19T22:09:03.851Z,20.8
2022-10-19T22:10:47.529Z,20.9
2022-10-19T22:12:31.237Z,20.8
2022-10-19T22:14:14.931Z,20.8
2022-10-19T22:15:58.620Z,20.8
2022-10-19T22:17:42.310Z,20.8
2022-10-19T22:19:26.086Z,20.8
2022-10-19T22:21:09.739Z,20.8
2022-10-19T22:22:53.422Z,20.8
2022-10-19T22:24:37.119Z,20.8
2022-10-19T22:26:20.844Z,20.8
2022-10-19T22:28:04.586Z,20.8
2022-10-19T22:29:48.260Z,20.8
2022-10-19T22:31:31.951Z,20.8
2022-10-19T22:33:15.643Z,20.7
2022-10-19T22:34:59.350Z,20.8
2022-10-19T22:36:43.026Z,20.7
2022-10-19T22:38:26.786Z,20.7
2022-10-19T22:40:10.475Z,20.7
2022-10-19T22:41:54.148Z,20.7
2022-10-19T22:43:37.844Z,20.7
2022-10-19T22:45:21.551Z,20.7
2022-10-19T22:47:05.235Z,20.7
2022-10-19T22:48:48.992Z,20.7
2022-10-19T22:50:32.670Z,20.7
2022-10-19T22:52:16.351Z,20.7
2022-10-19T22:54:00.082Z,20.7
2022-10-19T22:55:43.771Z,20.7
2022-10-19T22:57:27.436Z,20.7
2022-10-19T22:59:11.195Z,20.7
2022-10-19T23:00:54.879Z,20.7
2022-10-19T23:02:38.552Z,20.7
2022-10-19T23:04:22.502Z,20.7
2022-10-19T23:06:05.939Z,20.6
2022-10-19T23:07:49.655Z,20.6
2022-10-19T23:09:33.401Z,20.6
2022-10-19T23:11:17.078Z,20.6
2022-10-19T23:13:00.763Z,20.6
2022-10-19T23:14:44.449Z,20.6
2022-10-19T23:16:28.158Z,20.6
2022-10-19T23:18:11.851Z,20.6
2022-10-19T23:19:55.608Z,20.6